Date,TemperatureHighF,TemperatureAvgF,TemperatureLowF,DewpointHighF,DewpointAvgF,DewpointLowF,HumidityHigh,HumidityAvg,HumidityLow,PressureMaxIn,PressureMinIn,WindSpeedMaxMPH,WindSpeedAvgMPH,GustSpeedMaxMPH,PrecipitationSumIn
2013-3-1,30.0,22.6,14.0,19.0,16.1,7.0,89,77,63,0.00,40.00,10,5,16,0.00
2013-3-2,37.0,18.0,0.0,19.0,9.5,0.0,96,73,40,0.00,40.00,6,2,9,0.00
2013-3-3,33.0,25.7,18.0,16.0,12.5,10.0,76,59,43,0.00,40.00,16,1,22,0.00
2013-3-4,26.0,24.2,22.0,23.0,19.6,12.0,100,85,54,0.00,40.00,19,10,29,0.00
2013-3-5,29.0,25.2,22.0,28.0,23.9,19.0,100,95,84,0.00,40.00,13,7,17,0.00
2013-3-6,26.0,20.2,4.0,21.0,16.5,-0.0,95,86,73,0.00,40.00,9,4,14,0.00
2013-3-7,33.0,17.6,-2.0,19.0,11.5,-2.0,97,79,55,0.00,40.00,15,5,21,0.00
2013-3-8,37.0,27.3,15.0,30.0,23.2,14.0,99,85,67,0.00,40.00,9,-2,14,0.00
2013-3-9,36.0,34.9,32.0,36.0,34.4,30.0,100,99,94,0.00,40.00,9,5,13,0.00
2013-3-10,32.0,29.4,27.0,30.0,25.8,23.0,96,87,81,0.00,40.00,18,13,28,0.00
2013-3-11,30.0,25.6,17.0,23.0,21.3,16.0,93,85,71,0.00,40.00,14,10,21,0.00
2013-3-12,28.0,23.1,19.0,21.0,16.7,10.0,92,77,52,0.00,40.00,21,12,29,0.00
2013-3-13,36.0,21.2,5.0,19.0,15.2,5.0,99,80,49,0.00,40.00,14,6,22,0.00
2013-3-14,45.0,31.1,23.0,30.0,25.7,19.0,99,82,54,0.00,40.00,11,-3,16,0.00
2013-3-15,34.0,30.2,23.0,34.0,28.9,23.0,100,96,86,0.00,40.00,11,6,17,0.00
2013-3-16,22.0,17.1,8.0,21.0,11.6,1.0,99,81,63,0.00,40.00,14,10,21,0.00
2013-3-17,27.0,14.2,-2.0,19.0,6.5,-4.0,93,73,56,0.00,40.00,17,8,26,0.00
2013-3-18,30.0,20.0,11.0,30.0,16.9,7.0,100,89,77,0.00,40.00,24,17,34,0.00
2013-3-19,20.0,11.2,2.0,7.0,2.7,-2.0,89,70,49,0.00,40.00,26,16,32,0.00
2013-3-20,19.0,11.0,2.0,7.0,1.3,-4.0,75,65,55,0.00,40.00,24,15,34,0.00
2013-3-21,26.0,13.4,-2.0,12.0,5.0,-4.0,93,71,51,0.00,40.00,7,4,12,0.00
2013-3-22,44.0,20.1,0.0,19.0,10.6,0.0,98,72,34,0.00,40.00,7,3,8,0.00
2013-3-23,49.0,26.6,7.0,27.0,17.7,7.0,97,74,33,0.00,40.00,9,4,11,0.00
2013-3-24,35.0,29.9,25.0,28.0,25.3,23.0,99,83,63,0.00,40.00,13,0,21,0.00
2013-3-25,36.0,29.6,23.0,27.0,20.8,18.0,88,71,52,0.00,40.00,19,11,27,0.00
2013-3-26,44.0,28.5,19.0,28.0,22.0,18.0,97,79,48,0.00,40.00,13,6,18,0.00
2013-3-27,46.0,29.3,13.0,30.0,19.7,12.0,100,71,36,0.00,40.00,7,3,12,0.00
2013-3-28,43.0,31.5,14.0,30.0,23.3,14.0,99,74,49,0.00,40.00,11,3,14,0.00
2013-3-29,47.0,38.6,31.0,41.0,35.1,28.0,97,87,71,0.00,40.00,12,-1,17,0.00
2013-3-30,48.0,41.5,33.0,45.0,39.5,32.0,100,93,80,0.00,40.00,12,8,20,0.00
2013-3-31,37.0,31.8,21.0,34.0,24.5,16.0,100,76,48,0.00,40.00,24,15,34,0.00